Flight Track Log - Related Links

Times and Time Zones

All times are in EDT time to prevent confusion due to time zone crossing. See the NDU99 flight status page for this flight to view local times or setup timezone preferences in your user account.


Time Position Orientation Groundspeed Altitude Reporting Facility
EDT Latitude Longitude Course Direction KTS MPH feet Rate Location/Type
Tue 09:41:00 AM 47.9940 -96.7922 270° West  Level Estimated
Tue 09:42:00 AM 48.0006 -96.7376 270° West  Level Estimated
Tue 09:43:00 AM 48.0072 -96.6830 90° East  Level Estimated
Tue 09:44:00 AM 48.0390 -96.6546 31° Northeast  Level FlightAware Approximate
Tue 09:45:00 AM 48.0423 -96.5993 100° East  Level Estimated
Tue 09:46:00 AM 48.0464 -96.5441 84° East  Level FlightAware Approximate
Tue 09:47:00 AM 48.0505 -96.4889 84° East  Level FlightAware Approximate
Tue 09:48:00 AM 48.0545 -96.4338 84° East  Level FlightAware Approximate
Tue 09:49:00 AM 48.0586 -96.3786 84° East  Level FlightAware Approximate
Tue 09:50:00 AM 48.0626 -96.3234 84° East  Level FlightAware Approximate
Tue 09:51:00 AM 48.0638 -96.2679 110° East  Level Estimated
Tue 09:52:00 AM 48.0651 -96.2124 110° East  Level Estimated
Tue 09:53:00 AM 48.0500 -96.1833 110° East  Level FlightAware Approximate
Tue 09:54:00 AM 48.0657 -96.1850 110° East  Level Estimated
Tue 09:55:00 AM 48.0657 -96.1850 110° East  Level Estimated
Tue 09:56:00 AM 48.0657 -96.1850 110° East  Level Estimated
Tue 09:57:00 AM 48.0657 -96.1850 110° East  Level Estimated
Tue 09:58:00 AM 48.0657 -96.1850 110° East  Level Estimated
Tue 09:59:00 AM 48.0657 -96.1850 110° East  Level Estimated
Tue 10:00:00 AM 48.0657 -96.1850 110° East  Level Estimated
Tue 10:01:00 AM 48.0657 -96.1850 110° East  Level Estimated
Tue 10:02:00 AM 48.0657 -96.1850 110° East  Level Estimated
Tue 10:03:00 AM 48.0657 -96.1850 110° East  Level Estimated
Tue 10:04:00 AM 48.0657 -96.1850 110° East  Level Estimated
Tue 10:05:00 AM 48.0657 -96.1850 110° East  Level Estimated
Tue 10:06:00 AM 48.0657 -96.1850 110° East  Level Estimated
Tue 10:07:00 AM 48.0657 -96.1850 110° East  Level Estimated

Login

Don't have an account? Register now (free) for customized features, flight alerts, and more!